Time;durP1;ratioP1;P1;durP2;ratioP2;P2;SDS_P1;SDS_P2;PMS_P1;PMS_P2;Temp;Humidity;BMP_temperature;BMP_pressure;BME280_temperature;BME280_humidity;BME280_pressure;Samples;Min_cycle;Max_cycle;Signal;HPM_P1;HPM_P2
2023/06/05 00:01:04;;;;;;;5.15;3.35;;;;;;;13.71;100.00;102041.06;5271574;28;20029;-67
2023/06/05 00:03:36;;;;;;;5.78;2.88;;;;;;;13.66;100.00;102028.00;5263362;28;20421;-68
2023/06/05 00:06:08;;;;;;;6.22;3.50;;;;;;;13.63;100.00;102033.56;5264159;28;20040;-68
2023/06/05 00:08:39;;;;;;;6.88;3.28;;;;;;;13.56;100.00;102044.81;5259645;28;20044;-68
2023/06/05 00:11:11;;;;;;;6.18;3.20;;;;;;;13.51;100.00;102040.63;5268790;28;21428;-68
2023/06/05 00:13:42;;;;;;;6.20;3.05;;;;;;;13.50;100.00;102044.31;5264819;28;20119;-68
2023/06/05 00:16:13;;;;;;;8.23;3.33;;;;;;;13.47;100.00;102047.19;5264440;28;20385;-68
2023/06/05 00:18:45;;;;;;;5.28;3.15;;;;;;;13.41;100.00;102038.72;5263918;28;20033;-68
2023/06/05 00:21:16;;;;;;;6.70;3.30;;;;;;;13.37;100.00;102043.44;5268621;28;20025;-68
2023/06/05 00:23:48;;;;;;;6.60;3.08;;;;;;;13.32;100.00;102048.25;5265981;28;20040;-68
2023/06/05 00:26:19;;;;;;;5.28;3.28;;;;;;;13.29;100.00;102051.13;5266051;28;20549;-68
2023/06/05 00:28:51;;;;;;;6.32;3.50;;;;;;;13.23;100.00;102046.16;5268454;28;20032;-68
2023/06/05 00:31:22;;;;;;;5.45;3.47;;;;;;;13.24;100.00;102038.03;5263347;28;20573;-67
2023/06/05 00:33:54;;;;;;;7.10;3.40;;;;;;;13.16;100.00;102039.53;5264177;28;20066;-68
2023/06/05 00:36:25;;;;;;;6.47;3.40;;;;;;;13.11;100.00;102043.34;5265890;28;20028;-68
2023/06/05 00:38:56;;;;;;;6.68;3.85;;;;;;;13.08;100.00;102048.09;5266621;28;20719;-67
2023/06/05 00:41:28;;;;;;;8.25;3.60;;;;;;;13.01;100.00;102036.91;5265701;28;20627;-68
2023/06/05 00:43:59;;;;;;;10.63;3.85;;;;;;;13.00;100.00;102039.69;5261954;28;20032;-67
2023/06/05 00:46:31;;;;;;;8.45;3.63;;;;;;;12.93;100.00;102039.25;5265707;28;20017;-68
2023/06/05 00:49:02;;;;;;;8.13;4.60;;;;;;;12.86;100.00;102033.44;5265311;28;20028;-68
2023/06/05 00:51:35;;;;;;;6.03;3.83;;;;;;;12.82;100.00;102036.44;5269274;28;20023;-67
2023/06/05 00:54:07;;;;;;;10.95;3.90;;;;;;;12.78;100.00;102045.66;5263733;28;20744;-68
2023/06/05 00:56:41;;;;;;;7.45;3.78;;;;;;;12.79;100.00;102047.34;5265998;28;20032;-67
2023/06/05 00:59:13;;;;;;;6.35;3.72;;;;;;;12.72;100.00;102042.41;5265014;28;20364;-68
2023/06/05 01:01:45;;;;;;;7.20;3.50;;;;;;;12.69;100.00;102042.59;5265754;28;20386;-68
2023/06/05 01:04:16;;;;;;;7.50;4.07;;;;;;;12.64;100.00;102039.38;5263998;28;20085;-68
2023/06/05 01:06:48;;;;;;;6.45;4.13;;;;;;;12.58;100.00;102045.16;5262928;28;20481;-67
2023/06/05 01:09:19;;;;;;;6.57;3.72;;;;;;;12.52;100.00;102042.84;5265762;28;20466;-68
2023/06/05 01:12:06;;;;;;;5.97;3.75;;;;;;;12.54;100.00;102041.81;5270602;28;20548;-67
2023/06/05 01:14:40;;;;;;;6.95;3.80;;;;;;;12.47;100.00;102031.63;5265671;28;20032;-67
2023/06/05 01:17:13;;;;;;;7.28;4.45;;;;;;;12.41;100.00;102032.88;5267394;28;20044;-68
2023/06/05 01:19:45;;;;;;;9.00;4.35;;;;;;;12.43;100.00;102030.09;5261340;28;20059;-68
2023/06/05 01:22:16;;;;;;;8.07;4.28;;;;;;;12.45;100.00;102028.19;5264008;28;20056;-67
2023/06/05 01:24:48;;;;;;;9.43;4.45;;;;;;;12.43;100.00;102022.91;5260891;28;20029;-67
2023/06/05 01:28:18;;;;;;;6.50;3.88;;;;;;;12.46;100.00;102029.88;5263256;28;20032;-67
2023/06/05 01:31:00;;;;;;;9.93;4.22;;;;;;;12.36;100.00;102027.78;5244768;28;20126;-67
2023/06/05 01:33:43;;;;;;;7.13;4.45;;;;;;;12.29;100.00;102034.53;5261489;28;20119;-69
2023/06/05 01:36:15;;;;;;;10.02;4.70;;;;;;;12.26;100.00;102028.50;5259566;28;20379;-68
2023/06/05 01:38:48;;;;;;;8.20;4.10;;;;;;;12.20;100.00;102034.28;5262305;28;20768;-68
2023/06/05 01:41:20;;;;;;;8.00;4.72;;;;;;;12.13;100.00;102025.75;5262837;28;20165;-68
2023/06/05 01:43:53;;;;;;;6.80;4.50;;;;;;;12.09;100.00;102021.56;5261389;28;20038;-67
2023/06/05 01:46:24;;;;;;;7.20;4.55;;;;;;;12.04;100.00;102015.66;5262576;28;20052;-68
2023/06/05 01:48:56;;;;;;;8.10;4.57;;;;;;;12.03;100.00;102017.47;5265226;28;20474;-67
2023/06/05 01:51:28;;;;;;;8.07;5.32;;;;;;;12.03;100.00;102024.63;5263830;28;20556;-67
2023/06/05 01:53:59;;;;;;;10.23;4.93;;;;;;;11.92;100.00;102020.81;5259837;28;20505;-68
2023/06/05 01:56:32;;;;;;;7.97;4.53;;;;;;;11.89;100.00;102017.44;5265670;28;20017;-67
2023/06/05 01:59:07;;;;;;;8.50;4.75;;;;;;;11.83;100.00;102016.03;5260049;28;20021;-68
2023/06/05 02:01:38;;;;;;;6.60;4.38;;;;;;;11.85;100.00;102013.25;5263963;28;20024;-68
2023/06/05 02:04:18;;;;;;;6.93;4.57;;;;;;;11.79;100.00;102011.81;5261964;28;20029;-67
2023/06/05 02:06:53;;;;;;;10.30;5.10;;;;;;;11.77;100.00;102011.06;5266150;28;20045;-67
2023/06/05 02:09:24;;;;;;;8.75;4.82;;;;;;;11.76;100.00;102009.34;5255378;28;20039;-67
2023/06/05 02:11:55;;;;;;;9.30;5.30;;;;;;;11.73;100.00;102013.06;5262126;28;20087;-67
2023/06/05 02:14:27;;;;;;;9.30;4.95;;;;;;;11.64;100.00;102007.44;5264906;28;20025;-67
2023/06/05 02:16:58;;;;;;;10.02;5.25;;;;;;;11.62;100.00;102004.00;5261725;28;20411;-68
2023/06/05 02:19:30;;;;;;;8.73;5.20;;;;;;;11.59;100.00;102007.72;5264909;28;20040;-68
2023/06/05 02:22:01;;;;;;;9.55;5.82;;;;;;;11.56;100.00;101998.09;5269205;28;20108;-67
2023/06/05 02:24:34;;;;;;;9.38;5.25;;;;;;;11.54;100.00;102009.81;5266666;28;20387;-67
2023/06/05 02:27:08;;;;;;;10.85;5.30;;;;;;;11.49;100.00;102010.13;5265094;28;20111;-67
2023/06/05 02:29:39;;;;;;;9.73;5.95;;;;;;;11.44;100.00;101998.84;5272819;28;20024;-67
2023/06/05 02:32:11;;;;;;;15.70;5.65;;;;;;;11.43;100.00;101999.81;5266118;28;20120;-67
2023/06/05 02:34:46;;;;;;;9.85;6.05;;;;;;;11.47;100.00;101998.66;5262910;28;20044;-67
2023/06/05 02:37:18;;;;;;;8.77;5.60;;;;;;;11.40;100.00;102005.34;5263634;28;20028;-68
2023/06/05 02:39:50;;;;;;;8.93;5.53;;;;;;;11.37;100.00;101997.50;5265431;28;20159;-67
2023/06/05 02:42:22;;;;;;;9.20;5.93;;;;;;;11.32;100.00;101996.94;5261132;28;20049;-68
2023/06/05 02:44:54;;;;;;;8.98;5.78;;;;;;;11.31;100.00;101990.75;5267066;28;20024;-68
2023/06/05 02:47:25;;;;;;;11.52;5.93;;;;;;;11.31;100.00;102000.53;5269604;28;20472;-67
2023/06/05 02:49:57;;;;;;;9.00;5.82;;;;;;;11.26;100.00;101987.47;5266495;28;20024;-67
2023/06/05 02:52:29;;;;;;;9.55;6.03;;;;;;;11.22;100.00;101993.97;5266761;28;20037;-67
2023/06/05 02:55:05;;;;;;;10.95;6.75;;;;;;;11.31;100.00;101996.09;5263653;28;20059;-67
2023/06/05 02:57:41;;;;;;;12.05;6.10;;;;;;;11.16;100.00;101996.97;5270451;28;20028;-67
2023/06/05 03:00:16;;;;;;;8.18;6.07;;;;;;;11.15;100.00;101997.94;5270118;28;20032;-67
2023/06/05 03:02:51;;;;;;;11.10;6.43;;;;;;;11.08;100.00;101989.44;5272698;28;20115;-67
2023/06/05 03:05:24;;;;;;;9.93;5.85;;;;;;;11.03;100.00;101986.19;5265242;28;20060;-67
2023/06/05 03:07:55;;;;;;;9.05;7.10;;;;;;;10.99;100.00;101988.19;5275324;28;20028;-67
2023/06/05 03:10:27;;;;;;;8.80;6.00;;;;;;;10.95;100.00;101996.50;5267545;28;20598;-67
2023/06/05 03:12:59;;;;;;;8.93;6.50;;;;;;;10.97;100.00;101989.25;5268507;28;20592;-67
2023/06/05 03:15:30;;;;;;;9.80;6.95;;;;;;;10.98;100.00;101997.13;5267007;28;20421;-67
2023/06/05 03:18:02;;;;;;;9.60;6.93;;;;;;;11.09;100.00;101993.84;5269859;28;20033;-67
2023/06/05 03:20:34;;;;;;;14.00;7.68;;;;;;;10.92;100.00;101992.19;5267646;28;20035;-67
2023/06/05 03:23:05;;;;;;;11.13;7.03;;;;;;;10.90;100.00;101995.91;5266602;28;20105;-67
2023/06/05 03:25:37;;;;;;;11.10;7.32;;;;;;;10.91;100.00;101984.25;5271880;28;20029;-67
2023/06/05 03:28:08;;;;;;;12.82;7.25;;;;;;;10.87;100.00;101985.38;5269578;28;20487;-67
2023/06/05 03:30:39;;;;;;;10.45;7.20;;;;;;;10.82;100.00;101982.16;5270373;28;20032;-67
2023/06/05 03:33:11;;;;;;;9.90;6.68;;;;;;;10.81;100.00;101983.09;5267068;28;20067;-67
2023/06/05 03:35:42;;;;;;;9.50;6.78;;;;;;;10.75;100.00;101977.16;5267209;28;20025;-67
2023/06/05 03:38:14;;;;;;;10.45;7.40;;;;;;;10.77;100.00;101975.25;5267270;28;20031;-67
2023/06/05 03:40:45;;;;;;;9.90;7.30;;;;;;;10.73;100.00;101973.72;5261137;28;20074;-67
2023/06/05 03:43:17;;;;;;;12.63;7.85;;;;;;;10.67;100.00;101971.41;5266815;28;20032;-67
2023/06/05 03:45:48;;;;;;;11.90;7.85;;;;;;;10.66;100.00;101974.16;5265066;28;20029;-67
2023/06/05 03:48:20;;;;;;;10.52;7.50;;;;;;;10.61;100.00;101979.78;5268437;28;20059;-69
2023/06/05 03:50:52;;;;;;;9.68;7.30;;;;;;;10.62;100.00;101976.16;5264638;28;20123;-67
2023/06/05 03:53:23;;;;;;;10.93;7.63;;;;;;;10.68;100.00;101981.16;5264733;28;20084;-67
2023/06/05 03:55:56;;;;;;;13.45;8.00;;;;;;;10.59;100.00;101979.03;5272019;28;20055;-67
2023/06/05 03:58:28;;;;;;;11.48;7.63;;;;;;;10.57;100.00;101981.78;5272006;28;20600;-68
2023/06/05 04:01:00;;;;;;;11.02;8.18;;;;;;;10.57;100.00;101980.91;5266279;28;20031;-67
2023/06/05 04:03:31;;;;;;;12.55;8.10;;;;;;;10.61;100.00;101982.47;5270909;28;20057;-67
2023/06/05 04:06:04;;;;;;;11.88;8.15;;;;;;;10.62;100.00;101985.97;5269585;28;20085;-68
2023/06/05 04:08:36;;;;;;;11.48;8.07;;;;;;;10.58;100.00;101988.84;5259819;28;20063;-67
2023/06/05 04:11:07;;;;;;;13.35;8.57;;;;;;;10.61;100.00;101981.59;5263147;28;20127;-67
2023/06/05 04:13:38;;;;;;;11.05;8.07;;;;;;;10.57;100.00;101981.78;5267293;28;20032;-67
2023/06/05 04:16:11;;;;;;;13.90;8.25;;;;;;;10.67;100.00;101989.25;5259260;28;21332;-67
2023/06/05 04:18:42;;;;;;;15.48;8.18;;;;;;;10.66;100.00;101988.41;5265427;28;20044;-67
2023/06/05 04:21:14;;;;;;;13.75;8.65;;;;;;;10.67;100.00;101991.91;5266409;28;20028;-67
2023/06/05 04:23:45;;;;;;;12.90;8.40;;;;;;;10.68;100.00;101996.28;5265969;28;20024;-67
2023/06/05 04:26:17;;;;;;;14.55;8.88;;;;;;;10.68;100.00;101993.63;5273561;28;20073;-67
2023/06/05 04:28:50;;;;;;;12.88;9.20;;;;;;;10.70;100.00;101999.72;5264421;28;20028;-67
2023/06/05 04:31:24;;;;;;;13.15;8.98;;;;;;;10.70;100.00;102000.59;5264713;28;20024;-67
2023/06/05 04:33:56;;;;;;;12.88;9.15;;;;;;;10.80;100.00;101992.91;5263571;28;20050;-67
2023/06/05 04:36:28;;;;;;;12.40;8.68;;;;;;;10.72;100.00;101992.47;5260993;28;20032;-67
2023/06/05 04:39:03;;;;;;;13.07;8.30;;;;;;;10.77;100.00;101988.59;5265265;28;20397;-67
2023/06/05 04:41:36;;;;;;;12.13;8.10;;;;;;;10.81;100.00;101994.63;5267059;28;20028;-67
2023/06/05 04:44:07;;;;;;;12.35;8.88;;;;;;;10.90;100.00;102001.25;5251942;28;20143;-67
2023/06/05 04:46:39;;;;;;;10.65;8.32;;;;;;;10.87;100.00;102001.41;5257427;28;20451;-67
2023/06/05 04:49:16;;;;;;;12.50;8.93;;;;;;;10.91;100.00;102005.59;5255031;28;20033;-67
2023/06/05 04:51:47;;;;;;;12.15;8.75;;;;;;;10.86;100.00;102002.38;5254219;28;20029;-67
2023/06/05 04:54:19;;;;;;;12.82;9.02;;;;;;;10.89;100.00;102005.72;5251772;28;20039;-67
2023/06/05 04:56:52;;;;;;;12.85;9.00;;;;;;;10.93;100.00;102001.03;5254619;28;20072;-67
2023/06/05 04:59:23;;;;;;;12.73;8.80;;;;;;;10.93;100.00;102003.72;5252170;28;20099;-67
2023/06/05 05:01:54;;;;;;;15.00;10.43;;;;;;;10.94;100.00;102008.13;5255636;28;20446;-67
2023/06/05 05:04:26;;;;;;;13.88;9.25;;;;;;;10.99;100.00;102004.22;5256966;28;20082;-67
2023/06/05 05:07:01;;;;;;;12.63;9.48;;;;;;;11.05;100.00;102007.47;5256638;28;20487;-67
2023/06/05 05:09:32;;;;;;;14.52;9.68;;;;;;;11.03;100.00;102001.38;5258554;28;20020;-67
2023/06/05 05:12:04;;;;;;;13.57;9.55;;;;;;;11.11;100.00;102007.97;5255218;28;20043;-67
2023/06/05 05:14:36;;;;;;;14.07;9.70;;;;;;;11.09;100.00;102007.19;5258167;28;20012;-67
2023/06/05 05:17:07;;;;;;;16.92;9.50;;;;;;;11.11;100.00;102005.28;5251448;28;20120;-67
2023/06/05 05:19:40;;;;;;;14.48;9.40;;;;;;;11.15;100.00;101997.94;5258465;28;20441;-67
2023/06/05 05:22:12;;;;;;;11.25;8.63;;;;;;;11.12;100.00;101999.00;5259324;28;20036;-67
2023/06/05 05:24:43;;;;;;;13.50;9.50;;;;;;;11.26;100.00;102000.00;5262586;28;20024;-67
2023/06/05 05:27:14;;;;;;;14.05;10.23;;;;;;;11.25;100.00;102003.59;5254371;28;20021;-67
2023/06/05 05:29:46;;;;;;;14.20;9.75;;;;;;;11.24;100.00;102001.88;5267805;28;20034;-67
2023/06/05 05:32:17;;;;;;;13.80;9.48;;;;;;;11.45;100.00;102005.91;5261417;28;20028;-67
2023/06/05 05:34:50;;;;;;;16.63;9.77;;;;;;;11.30;100.00;101997.03;5264446;28;20407;-67
2023/06/05 05:37:22;;;;;;;14.98;9.55;;;;;;;11.46;100.00;102004.94;5267859;28;20025;-67
2023/06/05 05:39:54;;;;;;;20.52;10.07;;;;;;;11.39;100.00;102000.97;5274292;28;20028;-67
2023/06/05 05:42:25;;;;;;;14.50;10.15;;;;;;;11.48;100.00;101999.50;5272444;28;20037;-67
2023/06/05 05:44:56;;;;;;;15.32;10.13;;;;;;;11.51;100.00;101999.34;5267201;28;20107;-67
2023/06/05 05:47:28;;;;;;;13.38;9.50;;;;;;;11.52;100.00;101995.69;5268435;28;20016;-67
2023/06/05 05:49:59;;;;;;;15.15;9.13;;;;;;;11.53;100.00;102000.09;5266670;28;20028;-67
2023/06/05 05:52:31;;;;;;;13.73;9.88;;;;;;;11.58;100.00;101998.84;5263598;28;21980;-67
2023/06/05 05:55:03;;;;;;;14.85;9.25;;;;;;;11.60;100.00;101998.75;5265010;28;20032;-67
2023/06/05 05:57:34;;;;;;;16.40;9.82;;;;;;;11.64;100.00;101999.41;5259358;28;21233;-67
2023/06/05 06:00:12;;;;;;;15.73;10.23;;;;;;;11.70;100.00;102005.25;5268076;28;20040;-67
2023/06/05 06:02:43;;;;;;;14.48;9.63;;;;;;;11.72;100.00;102014.03;5265338;28;20047;-67
2023/06/05 06:05:15;;;;;;;15.55;10.15;;;;;;;11.76;100.00;102014.69;5261423;28;20057;-67
2023/06/05 06:07:46;;;;;;;15.25;10.18;;;;;;;11.81;100.00;102020.59;5267840;28;20023;-67
2023/06/05 06:10:19;;;;;;;13.85;9.52;;;;;;;11.87;100.00;102019.34;5269464;28;20032;-67
2023/06/05 06:12:50;;;;;;;15.63;10.32;;;;;;;11.93;100.00;102014.53;5268609;28;20068;-67
2023/06/05 06:15:22;;;;;;;15.30;9.27;;;;;;;12.02;100.00;102015.72;5260249;28;20675;-67
2023/06/05 06:17:54;;;;;;;13.10;9.63;;;;;;;12.10;100.00;102023.28;5267410;28;20464;-67
2023/06/05 06:20:25;;;;;;;15.70;9.85;;;;;;;12.16;100.00;102021.06;5267792;28;20368;-67
2023/06/05 06:22:56;;;;;;;13.45;9.32;;;;;;;12.25;100.00;102021.44;5265506;28;20024;-67
2023/06/05 06:25:28;;;;;;;13.85;9.23;;;;;;;12.33;100.00;102013.75;5270039;28;20032;-67
2023/06/05 06:28:01;;;;;;;17.35;10.50;;;;;;;12.42;100.00;102023.00;5269577;28;20032;-67
2023/06/05 06:30:32;;;;;;;17.90;10.32;;;;;;;12.50;100.00;102020.69;5268468;28;20028;-67
2023/06/05 06:33:04;;;;;;;17.95;10.30;;;;;;;12.62;100.00;102025.25;5265565;28;20778;-67
2023/06/05 06:35:36;;;;;;;17.27;10.15;;;;;;;12.69;100.00;102033.72;5265316;28;20050;-67
2023/06/05 06:38:07;;;;;;;15.02;9.35;;;;;;;12.74;100.00;102031.59;5265740;28;20033;-67
2023/06/05 06:40:39;;;;;;;12.07;9.45;;;;;;;12.84;100.00;102026.47;5267875;28;20118;-67
2023/06/05 06:43:10;;;;;;;13.73;9.73;;;;;;;12.84;100.00;102023.81;5267394;28;20036;-67
2023/06/05 06:45:42;;;;;;;13.93;9.52;;;;;;;12.98;100.00;102029.06;5268843;28;20039;-67
2023/06/05 06:48:13;;;;;;;17.30;10.70;;;;;;;13.09;100.00;102021.16;5266312;28;20258;-67
2023/06/05 06:50:45;;;;;;;13.73;9.73;;;;;;;13.17;100.00;102026.00;5267149;28;20029;-68
2023/06/05 06:53:16;;;;;;;20.02;10.32;;;;;;;13.24;100.00;102032.66;5270226;28;20437;-68
2023/06/05 06:55:47;;;;;;;16.15;10.07;;;;;;;13.26;100.00;102016.47;5262949;28;20017;-67
2023/06/05 06:58:19;;;;;;;14.98;9.77;;;;;;;13.39;100.00;102025.41;5264471;28;21560;-67
2023/06/05 07:00:50;;;;;;;16.67;10.45;;;;;;;13.40;100.00;102031.63;5268009;28;20036;-67
2023/06/05 07:03:24;;;;;;;13.85;9.60;;;;;;;13.42;100.00;102030.56;5267614;28;20441;-67
2023/06/05 07:05:55;;;;;;;16.90;10.32;;;;;;;13.45;100.00;102035.72;5268093;28;20072;-67
2023/06/05 07:08:26;;;;;;;14.45;10.02;;;;;;;13.51;100.00;102035.28;5271864;28;20037;-67
2023/06/05 07:10:58;;;;;;;14.45;9.82;;;;;;;13.61;100.00;102031.97;5264575;28;20028;-67
2023/06/05 07:13:29;;;;;;;13.85;9.52;;;;;;;13.77;100.00;102031.72;5272589;28;20119;-67
2023/06/05 07:16:01;;;;;;;19.63;10.38;;;;;;;13.78;100.00;102036.97;5267443;28;20032;-67
2023/06/05 07:18:32;;;;;;;14.48;9.75;;;;;;;13.83;100.00;102044.72;5269866;28;20028;-68
2023/06/05 07:21:03;;;;;;;24.90;10.82;;;;;;;13.98;100.00;102042.75;5270780;28;20090;-67
2023/06/05 07:23:36;;;;;;;12.90;9.32;;;;;;;14.01;100.00;102042.53;5272010;28;20101;-67
2023/06/05 07:26:08;;;;;;;11.63;9.13;;;;;;;14.06;100.00;102046.59;5268566;28;20100;-67
2023/06/05 07:28:39;;;;;;;14.65;10.05;;;;;;;14.08;100.00;102043.81;5274542;28;20021;-68
2023/06/05 07:31:11;;;;;;;12.18;8.95;;;;;;;14.25;100.00;102040.75;5270001;28;20043;-67
2023/06/05 07:33:42;;;;;;;12.05;9.38;;;;;;;14.46;100.00;102043.69;5272387;28;20107;-68
2023/06/05 07:36:14;;;;;;;15.02;9.32;;;;;;;14.48;100.00;102038.22;5267869;28;20124;-68
2023/06/05 07:38:46;;;;;;;12.75;9.40;;;;;;;14.52;100.00;102034.34;5270865;28;20032;-68
2023/06/05 07:41:17;;;;;;;14.73;9.75;;;;;;;14.58;100.00;102044.66;5271398;28;21223;-67
2023/06/05 07:43:48;;;;;;;15.77;10.63;;;;;;;14.70;100.00;102041.03;5273044;28;20036;-67
2023/06/05 07:46:20;;;;;;;14.38;9.63;;;;;;;14.75;100.00;102042.53;5273380;28;20036;-67
2023/06/05 07:48:51;;;;;;;16.52;9.88;;;;;;;14.84;100.00;102044.50;5270079;28;20306;-66
2023/06/05 07:51:23;;;;;;;16.10;10.15;;;;;;;14.93;100.00;102046.50;5272807;28;20767;-67
2023/06/05 07:53:54;;;;;;;18.08;9.80;;;;;;;14.91;100.00;102043.09;5274336;28;20040;-67
2023/06/05 07:56:26;;;;;;;19.20;9.73;;;;;;;15.00;100.00;102042.38;5273518;28;20085;-68
2023/06/05 07:58:57;;;;;;;16.95;9.65;;;;;;;15.15;100.00;102029.63;5272498;28;20035;-68
2023/06/05 08:01:30;;;;;;;13.63;8.85;;;;;;;15.23;100.00;102037.09;5264989;28;20029;-67
2023/06/05 08:04:05;;;;;;;25.25;10.30;;;;;;;15.34;100.00;102038.94;5275333;28;20029;-67
2023/06/05 08:06:41;;;;;;;12.43;9.20;;;;;;;15.40;100.00;102035.78;5282519;28;20491;-69
2023/06/05 08:09:13;;;;;;;12.02;8.68;;;;;;;15.65;100.00;102046.31;5260929;28;20088;-67
2023/06/05 08:11:44;;;;;;;13.20;8.85;;;;;;;15.60;100.00;102035.06;5277876;28;20502;-68
2023/06/05 08:14:16;;;;;;;17.35;9.30;;;;;;;15.65;100.00;102034.72;5269161;28;20024;-68
2023/06/05 08:16:47;;;;;;;11.93;8.30;;;;;;;15.77;100.00;102030.22;5274125;28;20040;-68
2023/06/05 08:19:18;;;;;;;11.18;8.40;;;;;;;15.89;100.00;102039.97;5268570;28;20052;-68
2023/06/05 08:21:52;;;;;;;13.23;9.15;;;;;;;15.90;100.00;102030.06;5275144;28;20032;-68
2023/06/05 08:24:24;;;;;;;13.18;8.73;;;;;;;15.95;100.00;102033.25;5268299;28;20032;-68
2023/06/05 08:26:55;;;;;;;12.05;8.75;;;;;;;16.01;100.00;102024.69;5266022;28;20043;-68
2023/06/05 08:29:27;;;;;;;12.70;8.50;;;;;;;16.10;100.00;102015.84;5271367;28;20386;-68
2023/06/05 08:31:59;;;;;;;15.93;8.25;;;;;;;16.31;100.00;102018.63;5272297;28;20060;-68
2023/06/05 08:34:31;;;;;;;11.73;8.25;;;;;;;16.30;100.00;102019.63;5275390;28;20564;-68
2023/06/05 08:37:03;;;;;;;12.02;8.20;;;;;;;16.37;100.00;102017.28;5272251;28;20453;-68
2023/06/05 08:39:34;;;;;;;12.27;8.05;;;;;;;16.48;100.00;102011.00;5267279;28;20039;-68
2023/06/05 08:42:07;;;;;;;11.88;7.80;;;;;;;16.52;100.00;102007.91;5282391;28;20056;-68
2023/06/05 08:44:40;;;;;;;12.40;9.23;;;;;;;16.64;100.00;102009.63;5269165;28;20036;-68
2023/06/05 08:47:13;;;;;;;13.55;7.72;;;;;;;16.79;100.00;102007.44;5276910;28;20031;-68
2023/06/05 08:49:45;;;;;;;13.77;8.25;;;;;;;16.85;100.00;102011.50;5270742;28;20025;-68
2023/06/05 08:52:21;;;;;;;11.48;8.18;;;;;;;16.91;100.00;102008.28;5274218;28;20426;-68
2023/06/05 08:54:53;;;;;;;12.48;8.30;;;;;;;16.90;100.00;101998.50;5280095;28;20028;-68
2023/06/05 08:57:24;;;;;;;14.50;8.40;;;;;;;17.08;100.00;102014.94;5270540;28;20047;-68
2023/06/05 08:59:56;;;;;;;12.85;7.97;;;;;;;16.96;100.00;102011.44;5269096;28;20643;-68
2023/06/05 09:02:27;;;;;;;10.52;7.55;;;;;;;16.97;100.00;102006.91;5271094;28;20036;-68
2023/06/05 09:05:00;;;;;;;12.23;7.80;;;;;;;17.14;100.00;102002.75;5270782;28;20043;-67
2023/06/05 09:07:33;;;;;;;9.90;6.90;;;;;;;17.31;100.00;102001.31;5270517;28;20024;-68
2023/06/05 09:10:06;;;;;;;10.90;7.55;;;;;;;17.38;100.00;102003.34;5265172;28;20036;-68
2023/06/05 09:12:58;;;;;;;9.98;6.75;;;;;;;17.51;100.00;102002.25;5264653;28;20108;-68
2023/06/05 09:15:32;;;;;;;10.75;7.60;;;;;;;17.67;100.00;102002.63;5282242;28;20020;-68
2023/06/05 09:18:14;;;;;;;12.15;7.78;;;;;;;17.70;100.00;101994.28;5275110;28;20036;-68
2023/06/05 09:20:45;;;;;;;9.25;6.38;;;;;;;17.89;100.00;101998.03;5282558;28;20024;-68
2023/06/05 09:23:27;;;;;;;9.68;6.43;;;;;;;17.97;100.00;101990.13;5283609;28;20081;-68
2023/06/05 09:26:01;;;;;;;11.02;6.55;;;;;;;18.13;100.00;101989.59;5261816;28;20025;-68
2023/06/05 09:28:33;;;;;;;10.75;6.85;;;;;;;18.22;100.00;101986.91;5266861;28;20094;-68
2023/06/05 09:31:04;;;;;;;15.05;7.63;;;;;;;18.32;100.00;101999.59;5273039;28;20020;-67
2023/06/05 09:33:37;;;;;;;8.23;6.68;;;;;;;18.39;100.00;101993.47;5264034;28;20025;-67
2023/06/05 09:36:13;;;;;;;11.43;6.88;;;;;;;18.51;100.00;101990.66;5257053;28;20094;-67
2023/06/05 09:38:45;;;;;;;9.55;6.18;;;;;;;18.68;100.00;101992.63;5271338;28;20068;-69
2023/06/05 09:41:20;;;;;;;12.65;6.78;;;;;;;18.60;100.00;101977.13;5276415;28;20470;-68
2023/06/05 09:43:51;;;;;;;8.45;5.88;;;;;;;18.66;100.00;101991.06;5264430;28;20056;-68
2023/06/05 09:46:22;;;;;;;13.80;7.10;;;;;;;18.69;100.00;101994.31;5270384;28;20028;-68
2023/06/05 09:48:59;;;;;;;10.35;6.35;;;;;;;18.80;100.00;101983.41;5270330;28;20038;-69
2023/06/05 09:51:30;;;;;;;9.55;6.22;;;;;;;18.82;100.00;101988.69;5275515;28;20153;-68
2023/06/05 09:54:03;;;;;;;11.10;5.85;;;;;;;18.92;100.00;101994.06;5275059;28;20127;-68
2023/06/05 09:56:36;;;;;;;9.70;6.70;;;;;;;18.80;100.00;101987.97;5277643;28;20478;-68
2023/06/05 09:59:09;;;;;;;10.07;5.93;;;;;;;18.97;100.00;101987.22;5266193;28;20025;-68
2023/06/05 10:01:41;;;;;;;8.27;5.22;;;;;;;19.07;100.00;101979.09;5267685;28;20473;-67
2023/06/05 10:04:15;;;;;;;7.70;5.10;;;;;;;19.36;100.00;101989.00;5268226;28;20051;-68
2023/06/05 10:06:48;;;;;;;11.15;5.95;;;;;;;19.35;100.00;101977.31;5270337;28;20044;-67
2023/06/05 10:09:19;;;;;;;10.18;5.50;;;;;;;19.54;100.00;101984.53;5271663;28;20028;-68
2023/06/05 10:11:51;;;;;;;10.77;5.93;;;;;;;19.50;100.00;101976.84;5275713;28;20051;-69
2023/06/05 10:14:23;;;;;;;7.80;5.15;;;;;;;19.69;100.00;101974.03;5274428;28;20118;-68
2023/06/05 10:16:56;;;;;;;9.98;6.00;;;;;;;19.61;100.00;101967.69;5268874;28;20028;-68
2023/06/05 10:19:27;;;;;;;11.95;5.47;;;;;;;19.71;100.00;101972.06;5278196;28;20080;-68
2023/06/05 10:21:59;;;;;;;8.90;5.93;;;;;;;19.75;100.00;101968.06;5269909;28;20025;-68
2023/06/05 10:24:34;;;;;;;9.15;5.65;;;;;;;19.88;100.00;101967.69;5274180;28;20350;-68
2023/06/05 10:27:15;;;;;;;11.10;5.65;;;;;;;20.02;100.00;101969.06;5269942;28;20150;-67
2023/06/05 10:30:12;;;;;;;9.75;5.65;;;;;;;20.01;100.00;101958.38;5281138;28;20036;-67
2023/06/05 10:33:03;;;;;;;9.05;5.70;;;;;;;20.08;100.00;101962.19;5267747;28;20058;-68
2023/06/05 10:35:46;;;;;;;10.57;5.15;;;;;;;20.14;100.00;101965.13;5274223;28;20040;-68
2023/06/05 10:38:21;;;;;;;8.40;5.90;;;;;;;20.11;100.00;101962.72;5267279;28;20040;-69
2023/06/05 10:40:56;;;;;;;8.15;5.22;;;;;;;20.27;100.00;101963.88;5271136;28;20021;-69
2023/06/05 10:43:36;;;;;;;9.80;5.93;;;;;;;20.36;100.00;101966.56;5278366;28;20032;-69
2023/06/05 10:46:33;;;;;;;8.70;5.72;;;;;;;20.43;100.00;101968.66;5265143;28;20127;-68
2023/06/05 10:49:17;;;;;;;8.82;5.45;;;;;;;20.48;100.00;101963.59;5256883;28;20063;-68
2023/06/05 10:51:54;;;;;;;10.20;5.93;;;;;;;20.63;100.00;101972.06;5254792;28;20023;-68
2023/06/05 10:54:26;;;;;;;11.05;5.43;;;;;;;20.67;100.00;101960.78;5258704;28;20071;-69
2023/06/05 10:57:00;;;;;;;11.30;5.20;;;;;;;20.76;100.00;101962.50;5268296;28;20111;-70
2023/06/05 10:59:32;;;;;;;9.63;5.03;;;;;;;20.87;100.00;101953.28;5273874;28;20029;-70
2023/06/05 11:02:08;;;;;;;7.40;4.35;;;;;;;20.96;100.00;101954.22;5272164;28;20043;-70
2023/06/05 11:04:48;;;;;;;10.38;4.82;;;;;;;20.92;100.00;101950.09;5267198;28;20118;-70
2023/06/05 11:07:24;;;;;;;10.55;3.90;;;;;;;21.24;100.00;101943.19;5267873;28;20053;-70
2023/06/05 11:10:01;;;;;;;8.43;4.85;;;;;;;21.18;100.00;101943.81;5278507;28;20029;-71
2023/06/05 11:12:39;;;;;;;9.88;5.43;;;;;;;21.10;100.00;101940.03;5269958;28;20039;-70
2023/06/05 11:15:36;;;;;;;9.18;5.03;;;;;;;21.25;100.00;101932.16;5268811;28;20031;-71
2023/06/05 11:18:27;;;;;;;8.75;4.90;;;;;;;21.34;100.00;101933.03;5269787;28;20047;-72
2023/06/05 11:21:00;;;;;;;9.35;5.80;;;;;;;21.20;100.00;101937.22;5270919;28;20059;-70
2023/06/05 11:23:31;;;;;;;7.72;4.50;;;;;;;21.39;100.00;101943.44;5277151;28;20036;-72
2023/06/05 11:26:42;;;;;;;7.75;4.97;;;;;;;21.48;100.00;101923.50;5271631;28;20089;-70
2023/06/05 11:29:15;;;;;;;8.55;4.78;;;;;;;21.51;100.00;101929.44;5269131;28;20134;-71
2023/06/05 11:31:46;;;;;;;11.40;4.75;;;;;;;21.56;100.00;101934.38;5267091;28;20395;-71
2023/06/05 11:34:18;;;;;;;10.23;4.63;;;;;;;21.62;100.00;101927.44;5274381;28;20382;-71
2023/06/05 11:36:49;;;;;;;8.73;4.35;;;;;;;21.69;100.00;101923.91;5277379;28;20398;-71
2023/06/05 11:39:21;;;;;;;8.73;4.35;;;;;;;21.79;100.00;101923.78;5270523;28;20124;-71